Shelton, CT

11:43 AM EST on November 21, 2014 (GMT -0500)
Tweed-New Haven | Change Station
CLOSE
Current Station
Airport
Location: New Haven,
Elevation: 13 ft
Nearby Weather Stations

Elev 13 ft 41.26 °N, 72.89 °W | Updated 50 minutes ago

Clear
Clear
36 °F
Feels Like 28 °F
N
13
Wind Variable Wind from WNW
Gusts 18 mph

Today
High -- | Low -- °F
--% Chance of Precip.
Yesterday
High -- | Low -- °F
Precip. -- in
6:47 AM 4:28 PM
Waning Crescent, 1% visible
Pressure 30.22 in
Visibility 10.0 miles
Clouds Few 4500 ft
Windchill 28 °F
Dew Point 12 °F
Humidity 37%
Rainfall 0.00 in
Snow Depth Not available.
UV 2 out of 12
Pollen .10 out of 12
Air Quality Not available.
Flu Activity Not available.
METAR KHVN 211553Z 30011G16KT 10SM FEW045 02/M11 A3022 RMK AO2 SLP234 T00221111

More Conditions Fewer Conditions

Pressure 30.22 in
Visibility 10.0 miles
Clouds Few 4500 ft
Windchill 28 °F
Dew Point 12 °F
Humidity 37%
Rainfall 0.00 in
Snow Depth Not available.
UV 2 out of 12
Pollen .10 out of 12
Air Quality Not available.
Flu Activity Not available.
METAR KHVN 211553Z 30011G16KT 10SM FEW045 02/M11 A3022 RMK AO2 SLP234 T00221111

More Conditions Fewer Conditions

10-Day Weather Forecast

Almanac

Astronomy

Nov. 21, 2014 Rise Set
Actual Time
Civil Twilight
Nautical Twilight
Astronomical Twilight
Moon
Length of Visible Light
Length of Day
Tomorrow will be .
, % of the Moon is Illuminated

Today's Extremes

State Highs State Lows

Community

WunderPhotos

Upload Photos

1,772,687 photos uploaded!

WunderBlogs® & News

Nearby

Air Quality

  Air Quality AQ Index Pollutant
Not available.

Snow Depth

Station Depth Elevation

Earthquake Activity

City Distance Mag. Time & Date
Minimum magnitude displayed is 2.5.

Coastal Water Temperatures

Place Temperature

Nearby Weather Stations